Time;durP1;ratioP1;P1;durP2;ratioP2;P2;SDS_P1;SDS_P2;PMS_P1;PMS_P2;Temp;Humidity;BMP_temperature;BMP_pressure;BME280_temperature;BME280_humidity;BME280_pressure;Samples;Min_cycle;Max_cycle;Signal;HPM_P1;HPM_P2
2022/07/08 00:01:24;;;;;;;1.88;1.13;;;;;;;;;;5017524;28;20029;-81
2022/07/08 00:03:49;;;;;;;4.97;1.60;;;;;;;;;;5015709;28;20050;-81
2022/07/08 00:06:15;;;;;;;6.20;1.73;;;;;;;;;;5019239;28;20120;-82
2022/07/08 00:08:40;;;;;;;3.05;1.17;;;;;;;;;;5017328;28;20010;-82
2022/07/08 00:11:06;;;;;;;4.82;1.77;;;;;;;;;;5004254;28;20037;-81
2022/07/08 00:13:31;;;;;;;3.85;1.40;;;;;;;;;;5002309;28;20514;-83
2022/07/08 00:15:56;;;;;;;1.58;1.17;;;;;;;;;;5019403;28;20490;-82
2022/07/08 00:18:22;;;;;;;4.88;1.58;;;;;;;;;;5001139;28;20022;-82
2022/07/08 00:20:47;;;;;;;2.38;1.70;;;;;;;;;;5014667;28;20078;-81
2022/07/08 00:23:12;;;;;;;5.13;2.08;;;;;;;;;;5019590;28;20530;-81
2022/07/08 00:25:38;;;;;;;4.75;2.15;;;;;;;;;;5020187;28;20065;-83
2022/07/08 00:28:03;;;;;;;6.55;2.15;;;;;;;;;;5019062;28;20108;-82
2022/07/08 00:30:29;;;;;;;5.07;1.70;;;;;;;;;;5019168;28;20479;-82
2022/07/08 00:32:54;;;;;;;6.90;2.22;;;;;;;;;;5015952;28;20399;-81
2022/07/08 00:35:20;;;;;;;5.80;2.08;;;;;;;;;;5020291;28;20112;-82
2022/07/08 00:37:45;;;;;;;5.55;2.70;;;;;;;;;;5014851;28;20013;-82
2022/07/08 00:40:11;;;;;;;3.70;2.20;;;;;;;;;;5015632;28;20022;-81
2022/07/08 00:42:37;;;;;;;6.35;2.15;;;;;;;;;;5016584;28;20030;-81
2022/07/08 00:45:03;;;;;;;4.82;1.90;;;;;;;;;;5016930;28;20030;-82
2022/07/08 00:47:28;;;;;;;7.50;2.33;;;;;;;;;;5017647;28;20056;-81
2022/07/08 00:49:54;;;;;;;5.63;2.20;;;;;;;;;;4999442;28;20056;-82
2022/07/08 00:52:19;;;;;;;9.38;2.55;;;;;;;;;;5016864;28;20480;-81
2022/07/08 00:54:45;;;;;;;6.13;2.40;;;;;;;;;;5017055;28;20076;-81
2022/07/08 00:57:12;;;;;;;6.88;2.40;;;;;;;;;;5021821;28;20034;-81
2022/07/08 00:59:38;;;;;;;2.95;2.08;;;;;;;;;;4997848;28;20456;-81
2022/07/08 01:02:03;;;;;;;5.40;1.83;;;;;;;;;;5015612;28;20034;-82
2022/07/08 01:04:30;;;;;;;7.93;2.10;;;;;;;;;;5016500;28;20037;-81
2022/07/08 01:06:56;;;;;;;4.35;2.25;;;;;;;;;;5015740;28;20034;-82
2022/07/08 01:09:21;;;;;;;4.72;2.13;;;;;;;;;;5016362;28;20592;-82
2022/07/08 01:11:46;;;;;;;8.65;2.42;;;;;;;;;;5032070;28;20081;-82
2022/07/08 01:14:14;;;;;;;4.78;2.05;;;;;;;;;;5023040;28;20026;-81
2022/07/08 01:16:39;;;;;;;5.28;1.88;;;;;;;;;;5015716;28;20022;-82
2022/07/08 01:19:04;;;;;;;6.97;2.53;;;;;;;;;;5016624;28;20101;-81
2022/07/08 01:21:30;;;;;;;7.53;2.35;;;;;;;;;;5016479;28;20053;-82
2022/07/08 01:23:55;;;;;;;9.50;2.25;;;;;;;;;;5016676;28;20041;-81
2022/07/08 01:26:21;;;;;;;3.58;1.92;;;;;;;;;;5014882;28;20536;-81
2022/07/08 01:28:46;;;;;;;3.55;1.92;;;;;;;;;;5015782;28;20445;-82
2022/07/08 01:31:12;;;;;;;6.97;2.38;;;;;;;;;;4998516;28;20108;-82
2022/07/08 01:33:37;;;;;;;4.90;1.70;;;;;;;;;;5015498;28;20026;-82
2022/07/08 01:36:03;;;;;;;6.60;1.92;;;;;;;;;;5016410;28;20034;-82
2022/07/08 01:38:29;;;;;;;11.57;2.50;;;;;;;;;;4998311;28;20105;-81
2022/07/08 01:40:54;;;;;;;6.82;1.75;;;;;;;;;;5001670;28;20025;-81
2022/07/08 01:43:20;;;;;;;7.03;1.83;;;;;;;;;;5020254;28;20022;-81
2022/07/08 01:45:46;;;;;;;5.10;1.90;;;;;;;;;;5019325;28;20029;-82
2022/07/08 01:48:11;;;;;;;11.50;2.17;;;;;;;;;;5019299;28;20029;-82
2022/07/08 01:50:37;;;;;;;7.68;2.10;;;;;;;;;;5019965;28;20487;-82
2022/07/08 01:53:02;;;;;;;4.50;2.38;;;;;;;;;;5020119;28;20111;-81
2022/07/08 01:55:28;;;;;;;5.15;1.80;;;;;;;;;;5002190;28;20022;-81
2022/07/08 01:57:53;;;;;;;4.70;1.95;;;;;;;;;;5018999;28;20450;-82
2022/07/08 02:00:19;;;;;;;8.30;2.20;;;;;;;;;;5019926;28;20103;-81
2022/07/08 02:02:45;;;;;;;5.82;2.00;;;;;;;;;;5018598;28;20101;-81
2022/07/08 02:05:11;;;;;;;9.07;2.08;;;;;;;;;;5019441;28;20110;-82
2022/07/08 02:07:37;;;;;;;4.20;1.80;;;;;;;;;;5001271;28;20057;-82
2022/07/08 02:10:03;;;;;;;6.30;2.25;;;;;;;;;;5019389;28;20112;-81
2022/07/08 02:12:29;;;;;;;3.90;1.92;;;;;;;;;;5019880;28;20061;-82
2022/07/08 02:15:01;;;;;;;3.47;2.28;;;;;;;;;;5026063;28;20020;-82
2022/07/08 02:17:29;;;;;;;4.72;2.15;;;;;;;;;;5018909;28;20117;-81
2022/07/08 02:19:55;;;;;;;4.65;2.30;;;;;;;;;;5001213;28;20513;-82
2022/07/08 02:22:20;;;;;;;4.65;2.13;;;;;;;;;;5018974;28;20034;-81
2022/07/08 02:24:47;;;;;;;8.60;1.83;;;;;;;;;;5019443;28;20032;-82
2022/07/08 02:27:13;;;;;;;3.83;2.00;;;;;;;;;;5085654;23;20059;-83
2022/07/08 02:29:38;;;;;;;4.90;1.95;;;;;;;;;;5034871;28;20172;-82
2022/07/08 02:32:04;;;;;;;4.95;2.05;;;;;;;;;;5021823;28;20040;-82
2022/07/08 02:34:29;;;;;;;4.47;2.00;;;;;;;;;;5026650;28;20037;-83
2022/07/08 02:36:55;;;;;;;4.82;1.80;;;;;;;;;;5024760;28;20030;-85
2022/07/08 02:39:21;;;;;;;7.55;2.00;;;;;;;;;;4995082;28;20026;-83
2022/07/08 02:41:47;;;;;;;8.98;2.22;;;;;;;;;;5002753;28;20048;-83
2022/07/08 02:44:12;;;;;;;9.57;2.28;;;;;;;;;;5014253;28;20347;-83
2022/07/08 02:46:39;;;;;;;8.32;2.15;;;;;;;;;;5006619;28;20085;-81
2022/07/08 02:49:04;;;;;;;4.90;2.10;;;;;;;;;;5004129;28;20114;-81
2022/07/08 02:51:30;;;;;;;4.82;1.90;;;;;;;;;;5022741;28;20029;-83
2022/07/08 02:53:55;;;;;;;4.07;1.80;;;;;;;;;;4999187;28;20022;-81
2022/07/08 02:56:21;;;;;;;10.38;2.10;;;;;;;;;;5017489;28;20099;-81
2022/07/08 02:58:46;;;;;;;9.70;2.58;;;;;;;;;;5022419;28;20019;-81
2022/07/08 03:01:12;;;;;;;12.75;2.13;;;;;;;;;;5004573;28;20030;-81
2022/07/08 03:03:37;;;;;;;6.15;2.15;;;;;;;;;;5014306;28;20387;-80
2022/07/08 03:06:03;;;;;;;7.55;2.35;;;;;;;;;;5012396;28;20166;-82
2022/07/08 03:08:28;;;;;;;5.93;1.88;;;;;;;;;;5006989;28;20112;-80
2022/07/08 03:10:54;;;;;;;6.97;2.00;;;;;;;;;;5013627;28;20042;-81
2022/07/08 03:13:19;;;;;;;5.07;1.95;;;;;;;;;;5022457;28;20029;-82
2022/07/08 03:15:45;;;;;;;8.57;3.40;;;;;;;;;;5024676;28;20048;-83
2022/07/08 03:18:10;;;;;;;3.72;2.15;;;;;;;;;;5030236;28;20032;-82
2022/07/08 03:20:35;;;;;;;5.18;2.17;;;;;;;;;;5014890;28;20022;-82
2022/07/08 03:23:01;;;;;;;4.32;1.80;;;;;;;;;;5029506;28;20018;-83
2022/07/08 03:25:27;;;;;;;6.15;2.30;;;;;;;;;;5036973;28;20060;-83
2022/07/08 03:27:52;;;;;;;5.93;2.20;;;;;;;;;;5025247;28;20018;-82
2022/07/08 03:30:17;;;;;;;4.55;2.13;;;;;;;;;;5032120;28;20089;-81
2022/07/08 03:32:43;;;;;;;12.23;1.92;;;;;;;;;;5033834;28;20045;-82
2022/07/08 03:35:09;;;;;;;9.05;2.05;;;;;;;;;;5022676;28;20128;-81
2022/07/08 03:37:39;;;;;;;4.68;2.20;;;;;;;;;;4992333;28;20542;-80
2022/07/08 03:42:50;;;;;;;8.73;2.17;;;;;;;;;;5008675;28;20081;-80
2022/07/08 03:45:15;;;;;;;4.75;1.77;;;;;;;;;;4990501;28;20022;-80
2022/07/08 03:47:40;;;;;;;9.95;2.20;;;;;;;;;;4998134;28;20088;-80
2022/07/08 03:50:08;;;;;;;7.25;2.35;;;;;;;;;;4998907;28;20057;-80
2022/07/08 03:52:33;;;;;;;6.53;2.45;;;;;;;;;;5019128;28;20029;-80
2022/07/08 03:54:59;;;;;;;5.63;1.98;;;;;;;;;;5002435;28;20029;-80
2022/07/08 03:57:24;;;;;;;6.93;2.00;;;;;;;;;;4999541;28;20028;-80
2022/07/08 03:59:49;;;;;;;5.60;1.88;;;;;;;;;;5014993;28;20089;-81
2022/07/08 04:02:15;;;;;;;11.77;2.53;;;;;;;;;;5009191;28;20030;-80
2022/07/08 04:04:40;;;;;;;5.93;2.08;;;;;;;;;;5006185;28;20056;-81
2022/07/08 04:07:05;;;;;;;6.43;2.03;;;;;;;;;;5025324;28;20068;-82
2022/07/08 04:09:31;;;;;;;7.63;2.22;;;;;;;;;;5017313;28;20045;-82
2022/07/08 04:11:56;;;;;;;4.68;2.22;;;;;;;;;;5010347;28;20134;-81
2022/07/08 04:14:22;;;;;;;6.20;2.20;;;;;;;;;;5018174;28;20033;-81
2022/07/08 04:16:47;;;;;;;9.82;2.17;;;;;;;;;;5021186;28;20028;-82
2022/07/08 04:19:12;;;;;;;6.28;2.13;;;;;;;;;;5014321;28;20026;-82
2022/07/08 04:21:38;;;;;;;8.80;2.05;;;;;;;;;;4999797;28;20023;-80
2022/07/08 04:24:03;;;;;;;8.93;2.80;;;;;;;;;;5017563;28;20036;-82
2022/07/08 04:26:31;;;;;;;5.45;2.00;;;;;;;;;;5012669;28;20056;-84
2022/07/08 04:28:58;;;;;;;5.47;2.13;;;;;;;;;;5027950;28;20041;-82
2022/07/08 04:31:23;;;;;;;6.97;2.50;;;;;;;;;;5025507;28;20404;-82
2022/07/08 04:33:49;;;;;;;4.50;2.10;;;;;;;;;;4999225;28;20073;-81
2022/07/08 04:36:14;;;;;;;6.82;2.22;;;;;;;;;;5015133;28;20030;-80
2022/07/08 04:38:39;;;;;;;3.80;2.08;;;;;;;;;;5008580;28;20025;-82
2022/07/08 04:41:05;;;;;;;9.90;2.28;;;;;;;;;;5009601;28;20089;-80
2022/07/08 04:43:30;;;;;;;4.82;2.05;;;;;;;;;;5006306;28;20033;-82
2022/07/08 04:45:55;;;;;;;5.32;2.00;;;;;;;;;;5020775;28;20030;-82
2022/07/08 04:48:21;;;;;;;6.30;2.40;;;;;;;;;;5006819;28;20098;-82
2022/07/08 04:50:46;;;;;;;5.97;2.30;;;;;;;;;;4998371;28;20030;-81
2022/07/08 04:53:12;;;;;;;6.05;2.00;;;;;;;;;;4995568;28;20037;-82
2022/07/08 04:55:37;;;;;;;3.00;1.90;;;;;;;;;;5024048;28;20032;-81
2022/07/08 04:58:04;;;;;;;4.20;2.50;;;;;;;;;;5004997;28;20025;-83
2022/07/08 05:00:31;;;;;;;8.43;2.45;;;;;;;;;;5006853;28;20056;-83
2022/07/08 05:02:58;;;;;;;6.32;1.83;;;;;;;;;;4997031;28;20546;-81
2022/07/08 05:05:23;;;;;;;9.27;2.17;;;;;;;;;;5000094;28;20065;-82
2022/07/08 05:07:49;;;;;;;11.35;2.53;;;;;;;;;;5019176;28;20040;-82
2022/07/08 05:10:16;;;;;;;10.20;2.45;;;;;;;;;;5016765;28;20026;-82
2022/07/08 05:12:41;;;;;;;10.32;2.58;;;;;;;;;;4999588;28;20053;-83
2022/07/08 05:15:07;;;;;;;6.38;2.30;;;;;;;;;;5001763;28;20484;-82
2022/07/08 05:17:32;;;;;;;7.63;2.40;;;;;;;;;;5003119;28;20030;-80
2022/07/08 05:19:58;;;;;;;5.53;2.60;;;;;;;;;;5007242;28;20041;-82
2022/07/08 05:22:24;;;;;;;4.40;1.88;;;;;;;;;;5017855;28;20026;-83
2022/07/08 05:24:49;;;;;;;4.75;2.08;;;;;;;;;;5017982;28;20057;-81
2022/07/08 05:27:15;;;;;;;8.45;2.25;;;;;;;;;;5000974;28;20368;-83
2022/07/08 05:29:40;;;;;;;4.60;2.10;;;;;;;;;;4996919;28;20030;-81
2022/07/08 05:32:05;;;;;;;4.95;2.17;;;;;;;;;;4993987;28;20042;-81
2022/07/08 05:34:31;;;;;;;5.68;2.35;;;;;;;;;;5004954;28;20178;-83
2022/07/08 05:36:56;;;;;;;4.65;2.08;;;;;;;;;;5011903;28;20022;-84
2022/07/08 05:39:22;;;;;;;13.80;2.13;;;;;;;;;;5034796;28;20030;-84
2022/07/08 05:41:48;;;;;;;3.33;1.73;;;;;;;;;;5026466;28;20040;-83
2022/07/08 05:44:14;;;;;;;7.97;2.05;;;;;;;;;;5009659;28;20041;-83
2022/07/08 05:46:39;;;;;;;6.78;2.03;;;;;;;;;;5004575;28;20026;-84
2022/07/08 05:49:05;;;;;;;5.78;2.08;;;;;;;;;;5004588;28;20026;-84
2022/07/08 05:51:30;;;;;;;2.22;1.55;;;;;;;;;;5015013;28;20022;-84
2022/07/08 05:53:55;;;;;;;3.95;1.67;;;;;;;;;;4987492;28;20033;-85
2022/07/08 05:56:22;;;;;;;4.95;2.15;;;;;;;;;;5009431;28;20030;-84
2022/07/08 05:58:48;;;;;;;4.80;1.52;;;;;;;;;;5018802;28;20076;-84
2022/07/08 06:01:13;;;;;;;8.25;1.70;;;;;;;;;;4990474;28;20046;-84
2022/07/08 06:03:39;;;;;;;9.73;2.00;;;;;;;;;;4992779;28;20090;-84
2022/07/08 06:06:04;;;;;;;7.90;1.98;;;;;;;;;;4988096;28;20030;-83
2022/07/08 06:08:30;;;;;;;5.03;1.40;;;;;;;;;;4992487;28;20408;-81
2022/07/08 06:10:56;;;;;;;5.25;1.48;;;;;;;;;;4993736;28;20026;-81
2022/07/08 06:13:22;;;;;;;2.38;1.33;;;;;;;;;;4988028;28;20181;-79
2022/07/08 06:15:48;;;;;;;3.70;1.58;;;;;;;;;;5006459;28;20033;-79
2022/07/08 06:18:13;;;;;;;3.70;1.40;;;;;;;;;;5013051;28;20085;-79
2022/07/08 06:20:38;;;;;;;13.10;2.15;;;;;;;;;;5016390;28;20029;-81
2022/07/08 06:23:04;;;;;;;4.30;1.40;;;;;;;;;;4990377;28;20089;-81
2022/07/08 06:25:29;;;;;;;3.60;1.73;;;;;;;;;;4996328;28;20030;-84
2022/07/08 06:27:55;;;;;;;6.05;1.55;;;;;;;;;;5011342;28;20034;-82
2022/07/08 06:30:20;;;;;;;4.07;1.65;;;;;;;;;;5014344;28;20037;-81
2022/07/08 06:32:45;;;;;;;4.50;1.40;;;;;;;;;;5023243;28;20026;-81
2022/07/08 06:35:11;;;;;;;5.75;1.40;;;;;;;;;;5001331;28;20038;-82
2022/07/08 06:37:37;;;;;;;6.22;1.58;;;;;;;;;;5003107;28;20391;-82
2022/07/08 06:40:04;;;;;;;2.25;1.20;;;;;;;;;;5027350;28;20022;-80
2022/07/08 06:42:29;;;;;;;5.68;1.13;;;;;;;;;;5022121;28;20038;-82
2022/07/08 06:44:54;;;;;;;3.30;1.30;;;;;;;;;;5007608;28;20030;-82
2022/07/08 06:47:22;;;;;;;3.42;1.00;;;;;;;;;;5003561;28;20037;-82
2022/07/08 06:49:48;;;;;;;4.60;1.08;;;;;;;;;;5003360;28;20061;-81
2022/07/08 06:52:13;;;;;;;5.22;1.55;;;;;;;;;;4998640;28;20021;-82
2022/07/08 06:54:38;;;;;;;5.85;1.30;;;;;;;;;;5036976;28;20048;-83
2022/07/08 06:57:07;;;;;;;6.22;1.70;;;;;;;;;;5017941;28;20101;-83
2022/07/08 06:59:34;;;;;;;2.28;1.05;;;;;;;;;;5009737;28;20053;-83
2022/07/08 07:01:59;;;;;;;4.97;0.90;;;;;;;;;;5011141;28;20081;-83
2022/07/08 07:04:26;;;;;;;2.45;0.93;;;;;;;;;;5019475;28;20018;-83
2022/07/08 07:06:52;;;;;;;4.47;1.40;;;;;;;;;;5027270;28;20247;-81
2022/07/08 07:09:17;;;;;;;2.22;1.15;;;;;;;;;;5029096;28;20039;-82
2022/07/08 07:11:42;;;;;;;2.83;1.00;;;;;;;;;;5033422;28;20093;-84
2022/07/08 07:14:08;;;;;;;6.90;1.55;;;;;;;;;;5020289;28;20026;-82
2022/07/08 07:16:33;;;;;;;3.75;1.23;;;;;;;;;;4998700;28;20041;-83
2022/07/08 07:19:00;;;;;;;4.13;1.60;;;;;;;;;;4994644;28;20069;-82
2022/07/08 07:21:25;;;;;;;7.25;1.15;;;;;;;;;;4998786;28;20104;-82
2022/07/08 07:23:53;;;;;;;3.13;1.10;;;;;;;;;;4982906;28;20026;-81
2022/07/08 07:26:19;;;;;;;2.20;0.90;;;;;;;;;;4987046;28;20052;-81
2022/07/08 07:28:44;;;;;;;2.83;1.30;;;;;;;;;;5015562;28;20132;-82
2022/07/08 07:31:10;;;;;;;6.20;1.30;;;;;;;;;;4998644;28;20052;-82
2022/07/08 07:33:36;;;;;;;2.47;1.20;;;;;;;;;;4990249;28;20122;-81
2022/07/08 07:36:01;;;;;;;4.70;1.27;;;;;;;;;;5005710;28;20124;-82
2022/07/08 07:38:27;;;;;;;1.73;0.95;;;;;;;;;;5010679;28;20069;-82
2022/07/08 07:40:52;;;;;;;0.70;0.60;;;;;;;;;;4999324;28;20036;-81
2022/07/08 07:43:17;;;;;;;3.08;1.17;;;;;;;;;;5020175;28;20448;-82
2022/07/08 07:45:43;;;;;;;3.17;1.15;;;;;;;;;;4994747;28;20130;-82
2022/07/08 07:48:09;;;;;;;2.05;1.13;;;;;;;;;;4999210;28;20032;-82
2022/07/08 07:50:34;;;;;;;5.13;1.25;;;;;;;;;;4989769;28;20021;-83
2022/07/08 07:52:59;;;;;;;3.03;1.23;;;;;;;;;;5004555;28;20129;-82
2022/07/08 07:55:25;;;;;;;3.83;1.25;;;;;;;;;;4998792;28;20036;-82
2022/07/08 07:57:50;;;;;;;6.20;1.50;;;;;;;;;;5017921;28;20026;-82
2022/07/08 08:00:16;;;;;;;5.63;1.17;;;;;;;;;;5001282;28;20026;-83
2022/07/08 08:02:42;;;;;;;4.00;1.30;;;;;;;;;;5015194;28;20125;-83
2022/07/08 08:05:09;;;;;;;3.30;1.15;;;;;;;;;;4997968;28;20103;-82
2022/07/08 08:07:38;;;;;;;4.32;1.35;;;;;;;;;;4995552;28;20494;-83
2022/07/08 08:10:04;;;;;;;4.90;1.00;;;;;;;;;;4999808;28;20372;-82
2022/07/08 08:12:29;;;;;;;2.25;1.10;;;;;;;;;;5009530;28;20131;-82
2022/07/08 08:14:55;;;;;;;4.00;1.30;;;;;;;;;;4994830;28;20137;-82
2022/07/08 08:17:20;;;;;;;10.13;1.48;;;;;;;;;;5000373;28;20113;-82
2022/07/08 08:19:45;;;;;;;3.08;1.02;;;;;;;;;;4991900;28;20360;-80
2022/07/08 08:22:11;;;;;;;2.83;1.20;;;;;;;;;;4996039;28;20061;-81
2022/07/08 08:24:36;;;;;;;6.50;1.02;;;;;;;;;;4990079;28;20029;-83
2022/07/08 08:27:02;;;;;;;2.67;0.98;;;;;;;;;;5045697;23;20069;-80
2022/07/08 08:29:27;;;;;;;3.15;1.08;;;;;;;;;;4972055;28;20083;-82
2022/07/08 08:31:52;;;;;;;4.82;1.35;;;;;;;;;;4959447;28;20777;-80
2022/07/08 08:34:18;;;;;;;1.98;0.95;;;;;;;;;;4978233;28;20027;-81
2022/07/08 08:36:43;;;;;;;6.82;1.35;;;;;;;;;;4974218;28;20026;-81
2022/07/08 08:39:08;;;;;;;6.20;1.65;;;;;;;;;;4971142;28;20023;-81
2022/07/08 08:41:35;;;;;;;5.32;1.30;;;;;;;;;;4976527;28;20082;-82
2022/07/08 08:44:00;;;;;;;4.10;1.10;;;;;;;;;;4975597;28;20049;-83
2022/07/08 08:46:26;;;;;;;4.65;1.10;;;;;;;;;;4958894;28;20030;-83
2022/07/08 08:48:56;;;;;;;3.88;1.10;;;;;;;;;;4972762;28;20030;-83
2022/07/08 08:51:22;;;;;;;2.78;1.20;;;;;;;;;;4971837;28;20638;-84
2022/07/08 08:53:48;;;;;;;1.48;0.95;;;;;;;;;;4976672;28;20041;-83
2022/07/08 08:56:16;;;;;;;1.45;1.10;;;;;;;;;;4971615;28;20031;-83
2022/07/08 08:58:49;;;;;;;3.60;1.33;;;;;;;;;;4959333;28;20231;-82
2022/07/08 09:01:16;;;;;;;3.75;1.17;;;;;;;;;;4952846;28;20030;-82
2022/07/08 09:03:43;;;;;;;4.68;1.20;;;;;;;;;;4957453;28;20026;-82
2022/07/08 09:06:08;;;;;;;3.65;1.42;;;;;;;;;;4958385;28;20421;-83
2022/07/08 09:08:36;;;;;;;2.75;1.23;;;;;;;;;;4976973;28;20037;-83
2022/07/08 09:11:02;;;;;;;3.67;0.98;;;;;;;;;;4975916;28;20114;-83
2022/07/08 09:13:27;;;;;;;5.60;1.23;;;;;;;;;;4977778;28;20066;-82
2022/07/08 09:15:57;;;;;;;6.05;1.00;;;;;;;;;;4987519;28;20030;-83
2022/07/08 09:18:31;;;;;;;3.88;1.08;;;;;;;;;;4993947;28;20163;-82
2022/07/08 09:20:58;;;;;;;4.13;1.48;;;;;;;;;;4977176;28;20030;-83
2022/07/08 09:23:29;;;;;;;3.67;1.23;;;;;;;;;;4996631;28;20078;-82
2022/07/08 09:25:57;;;;;;;4.68;1.35;;;;;;;;;;4994052;28;20023;-84
2022/07/08 09:28:34;;;;;;;3.30;1.02;;;;;;;;;;4994759;28;20030;-82
2022/07/08 09:31:02;;;;;;;1.83;1.00;;;;;;;;;;4996273;28;20113;-83
2022/07/08 09:33:28;;;;;;;1.98;0.93;;;;;;;;;;4990270;28;20030;-83
2022/07/08 09:36:00;;;;;;;3.45;1.38;;;;;;;;;;4990954;28;20031;-82
2022/07/08 09:38:26;;;;;;;2.92;1.30;;;;;;;;;;4974978;28;20239;-84
2022/07/08 09:40:59;;;;;;;2.55;1.20;;;;;;;;;;4995730;28;20026;-82
2022/07/08 09:43:26;;;;;;;6.45;1.10;;;;;;;;;;4996314;28;20026;-83
2022/07/08 09:45:52;;;;;;;3.72;0.95;;;;;;;;;;4995124;28;20034;-83
2022/07/08 09:48:18;;;;;;;3.67;1.40;;;;;;;;;;4993983;28;20040;-83
2022/07/08 09:50:48;;;;;;;3.60;1.27;;;;;;;;;;4991610;28;20034;-83
2022/07/08 09:53:16;;;;;;;2.60;1.30;;;;;;;;;;4974300;28;20438;-83
2022/07/08 09:55:52;;;;;;;3.67;1.13;;;;;;;;;;4994539;28;20413;-82
2022/07/08 09:58:26;;;;;;;3.70;0.98;;;;;;;;;;4987162;28;20427;-82
2022/07/08 10:00:53;;;;;;;2.45;1.00;;;;;;;;;;4986446;28;20026;-83
2022/07/08 10:03:20;;;;;;;3.45;0.93;;;;;;;;;;4978229;28;20500;-83
2022/07/08 10:05:46;;;;;;;4.05;1.13;;;;;;;;;;4994671;28;20375;-82
2022/07/08 10:08:12;;;;;;;5.40;1.45;;;;;;;;;;4998632;28;20322;-81
2022/07/08 10:10:38;;;;;;;3.13;1.13;;;;;;;;;;4999422;28;20428;-82
2022/07/08 10:13:04;;;;;;;3.33;0.93;;;;;;;;;;4999615;28;20045;-80
2022/07/08 10:15:33;;;;;;;1.08;0.93;;;;;;;;;;4996078;28;20053;-82
2022/07/08 10:18:13;;;;;;;2.08;0.80;;;;;;;;;;4996952;28;20030;-81
2022/07/08 10:20:44;;;;;;;3.15;1.33;;;;;;;;;;4986916;28;20030;-81
2022/07/08 10:23:16;;;;;;;3.47;1.17;;;;;;;;;;4999771;28;20053;-82
2022/07/08 10:25:42;;;;;;;;;;;;;;;;;;4980422;28;20023;-81
2022/07/08 10:28:09;;;;;;;3.35;1.20;;;;;;;;;;4996352;28;20020;-82
2022/07/08 10:31:23;;;;;;;6.18;1.58;;;;;;;;;;4999338;28;20030;-82
2022/07/08 10:33:50;;;;;;;2.65;1.05;;;;;;;;;;4939465;28;20105;-82
2022/07/08 10:36:20;;;;;;;3.97;0.90;;;;;;;;;;4995103;28;20027;-82
2022/07/08 10:38:45;;;;;;;2.92;1.00;;;;;;;;;;4981930;28;20045;-82
2022/07/08 10:41:13;;;;;;;5.90;1.45;;;;;;;;;;4994324;28;20473;-83
2022/07/08 10:43:52;;;;;;;2.45;0.70;;;;;;;;;;4999424;28;20038;-82
2022/07/08 10:46:20;;;;;;;2.10;1.00;;;;;;;;;;4995020;28;20121;-82
2022/07/08 10:48:55;;;;;;;2.60;0.70;;;;;;;;;;4998211;28;20058;-82
2022/07/08 10:51:24;;;;;;;3.08;1.20;;;;;;;;;;4998787;28;20037;-82
2022/07/08 10:54:01;;;;;;;1.75;0.65;;;;;;;;;;4998997;28;20045;-82
2022/07/08 10:56:49;;;;;;;3.40;0.93;;;;;;;;;;4973884;28;20117;-82
2022/07/08 10:59:16;;;;;;;3.55;1.08;;;;;;;;;;4996719;28;20374;-82
2022/07/08 11:01:42;;;;;;;1.38;0.90;;;;;;;;;;4998410;28;20065;-82
2022/07/08 11:04:29;;;;;;;5.45;1.17;;;;;;;;;;4980890;28;20030;-82
2022/07/08 11:07:15;;;;;;;2.05;0.90;;;;;;;;;;4994153;28;20418;-81
2022/07/08 11:09:42;;;;;;;2.17;0.95;;;;;;;;;;4997885;28;20117;-82
2022/07/08 11:12:19;;;;;;;2.97;0.98;;;;;;;;;;4998302;28;20109;-82
2022/07/08 11:14:46;;;;;;;5.38;1.50;;;;;;;;;;4998690;28;20026;-82
2022/07/08 11:17:30;;;;;;;1.20;0.80;;;;;;;;;;4996862;28;20034;-83
2022/07/08 11:19:58;;;;;;;5.05;1.00;;;;;;;;;;4980991;28;20137;-83
2022/07/08 11:22:25;;;;;;;2.42;0.88;;;;;;;;;;4991649;28;20022;-82
2022/07/08 11:24:52;;;;;;;5.75;1.23;;;;;;;;;;4999316;28;20380;-82
2022/07/08 11:27:26;;;;;;;2.72;1.08;;;;;;;;;;4996970;28;20112;-83
2022/07/08 11:29:52;;;;;;;2.42;0.95;;;;;;;;;;4996610;28;20086;-83
2022/07/08 11:32:20;;;;;;;3.38;0.90;;;;;;;;;;4997040;28;20026;-82
2022/07/08 11:34:49;;;;;;;4.50;0.90;;;;;;;;;;4977544;28;20053;-82
2022/07/08 11:37:15;;;;;;;3.65;1.20;;;;;;;;;;4995652;28;20506;-82
2022/07/08 11:39:45;;;;;;;2.63;0.98;;;;;;;;;;4997652;28;20377;-82
2022/07/08 11:42:12;;;;;;;2.40;0.98;;;;;;;;;;4996534;28;20046;-83
2022/07/08 11:45:04;;;;;;;3.17;0.90;;;;;;;;;;4997760;28;20038;-83
2022/07/08 11:47:32;;;;;;;3.20;0.85;;;;;;;;;;4994987;28;20030;-85
2022/07/08 11:49:57;;;;;;;3.05;1.30;;;;;;;;;;4991953;28;20421;-81
2022/07/08 11:52:23;;;;;;;1.48;0.80;;;;;;;;;;4978825;28;20388;-81
2022/07/08 11:54:48;;;;;;;1.38;0.80;;;;;;;;;;4996900;28;20528;-81
2022/07/08 11:57:16;;;;;;;4.88;0.95;;;;;;;;;;4997016;28;20026;-81
2022/07/08 11:59:44;;;;;;;3.20;1.15;;;;;;;;;;4994078;28;20494;-81
2022/07/08 12:02:13;;;;;;;4.07;1.00;;;;;;;;;;4988873;28;20106;-88
2022/07/08 12:04:43;;;;;;;5.38;0.88;;;;;;;;;;4996537;28;20037;-81
2022/07/08 12:07:38;;;;;;;17.77;3.00;;;;;;;;;;4996824;28;20026;-82
2022/07/08 12:10:05;;;;;;;1.63;0.68;;;;;;;;;;4982751;28;20497;-82
2022/07/08 12:12:35;;;;;;;2.47;0.68;;;;;;;;;;4997331;28;20385;-81
2022/07/08 12:15:23;;;;;;;3.78;0.80;;;;;;;;;;4996981;28;20030;-82
2022/07/08 12:17:58;;;;;;;2.55;0.98;;;;;;;;;;4989899;28;20026;-81
2022/07/08 12:20:57;;;;;;;3.42;1.00;;;;;;;;;;4992839;28;20169;-81
2022/07/08 12:27:07;;;;;;;3.78;1.15;;;;;;;;;;4937997;28;20074;-82
2022/07/08 12:29:44;;;;;;;6.45;1.23;;;;;;;;;;4978987;28;20588;-81
2022/07/08 12:32:34;;;;;;;5.63;1.80;;;;;;;;;;4982672;28;20038;-83
2022/07/08 12:35:30;;;;;;;1.83;1.00;;;;;;;;;;4981092;28;20062;-82
2022/07/08 12:38:32;;;;;;;2.40;0.80;;;;;;;;;;4997025;28;20475;-84
2022/07/08 12:40:57;;;;;;;6.05;1.80;;;;;;;;;;4996974;28;20042;-82
2022/07/08 12:43:29;;;;;;;5.10;1.02;;;;;;;;;;4996713;28;20029;-79
2022/07/08 12:45:55;;;;;;;2.13;0.85;;;;;;;;;;4991361;28;20037;-82
2022/07/08 12:48:20;;;;;;;1.48;1.00;;;;;;;;;;4994648;28;20022;-82
2022/07/08 12:50:45;;;;;;;3.92;0.90;;;;;;;;;;4995325;28;20025;-79
2022/07/08 12:53:11;;;;;;;2.33;0.80;;;;;;;;;;4992708;28;20210;-79
2022/07/08 12:55:37;;;;;;;1.48;0.85;;;;;;;;;;4993959;28;20109;-78
2022/07/08 12:58:02;;;;;;;3.05;1.30;;;;;;;;;;4989986;28;20138;-78
2022/07/08 13:00:28;;;;;;;3.80;1.10;;;;;;;;;;4981709;28;20034;-80
2022/07/08 13:02:53;;;;;;;4.13;1.13;;;;;;;;;;4994214;28;20026;-79
2022/07/08 13:05:19;;;;;;;3.20;0.80;;;;;;;;;;4996332;28;20025;-79
2022/07/08 13:07:44;;;;;;;1.73;1.00;;;;;;;;;;4996347;28;20030;-81
2022/07/08 13:10:10;;;;;;;2.22;0.88;;;;;;;;;;4996685;28;20029;-83
2022/07/08 13:12:46;;;;;;;2.88;0.90;;;;;;;;;;4999627;28;20297;-79
2022/07/08 13:15:12;;;;;;;3.00;0.95;;;;;;;;;;4998855;28;20026;-82
2022/07/08 13:17:37;;;;;;;5.95;1.23;;;;;;;;;;4996491;28;20109;-81
2022/07/08 13:20:03;;;;;;;3.33;0.98;;;;;;;;;;4997121;28;20493;-80
2022/07/08 13:22:28;;;;;;;1.40;0.88;;;;;;;;;;4997432;28;20026;-80
2022/07/08 13:24:53;;;;;;;4.30;1.27;;;;;;;;;;5000819;28;20034;-80
2022/07/08 13:27:19;;;;;;;4.13;0.90;;;;;;;;;;5002454;28;20134;-80
2022/07/08 13:29:44;;;;;;;6.35;1.60;;;;;;;;;;5001892;28;20023;-81
2022/07/08 13:32:09;;;;;;;2.65;1.05;;;;;;;;;;5000641;28;20432;-80
2022/07/08 13:34:35;;;;;;;5.05;1.20;;;;;;;;;;5001393;28;20210;-80
2022/07/08 13:37:01;;;;;;;1.70;0.85;;;;;;;;;;5003181;28;20501;-81
2022/07/08 13:39:26;;;;;;;2.85;1.70;;;;;;;;;;5004323;28;20548;-81
2022/07/08 13:41:52;;;;;;;2.88;0.88;;;;;;;;;;5005718;28;20022;-81
2022/07/08 13:44:17;;;;;;;0.95;0.70;;;;;;;;;;5003614;28;20086;-81
2022/07/08 13:46:42;;;;;;;9.02;2.22;;;;;;;;;;5003315;28;20086;-81
2022/07/08 13:49:08;;;;;;;4.20;1.20;;;;;;;;;;5003017;28;20029;-81
2022/07/08 13:51:33;;;;;;;1.95;0.90;;;;;;;;;;5002533;28;20063;-80
2022/07/08 13:53:58;;;;;;;2.55;1.02;;;;;;;;;;5001584;28;20030;-82
2022/07/08 13:59:50;;;;;;;1.33;1.00;;;;;;;;;;4998227;28;20468;-82
2022/07/08 14:02:30;;;;;;;8.98;1.30;;;;;;;;;;4926873;29;20075;-80
2022/07/08 14:04:56;;;;;;;3.47;1.50;;;;;;;;;;4941222;28;20094;-81
2022/07/08 14:07:27;;;;;;;4.88;1.48;;;;;;;;;;5031741;23;20144;-81
2022/07/08 14:10:27;;;;;;;6.97;1.77;;;;;;;;;;5015689;28;20304;-83
2022/07/08 14:13:08;;;;;;;5.35;1.10;;;;;;;;;;5003401;28;20497;-79
2022/07/08 14:15:33;;;;;;;4.18;1.40;;;;;;;;;;5012937;28;20026;-80
2022/07/08 14:17:59;;;;;;;3.75;1.23;;;;;;;;;;5020207;28;20028;-80
2022/07/08 14:20:24;;;;;;;3.15;1.10;;;;;;;;;;5007560;28;20034;-81
2022/07/08 14:22:50;;;;;;;6.22;0.90;;;;;;;;;;5003035;28;20041;-81
2022/07/08 14:25:17;;;;;;;3.03;1.23;;;;;;;;;;4986233;28;20026;-80
2022/07/08 14:27:42;;;;;;;3.15;1.05;;;;;;;;;;5022604;28;20040;-82
2022/07/08 14:30:08;;;;;;;5.32;1.88;;;;;;;;;;5022428;28;20030;-82
2022/07/08 14:32:33;;;;;;;1.48;0.70;;;;;;;;;;5018791;28;20057;-81
2022/07/08 14:34:59;;;;;;;2.10;1.17;;;;;;;;;;5001975;28;20029;-82
2022/07/08 14:37:24;;;;;;;2.25;1.40;;;;;;;;;;5019082;28;20531;-82
2022/07/08 14:39:50;;;;;;;3.47;1.00;;;;;;;;;;5011136;28;20053;-81
2022/07/08 14:42:15;;;;;;;1.90;1.10;;;;;;;;;;5019668;28;20041;-81
2022/07/08 14:44:40;;;;;;;4.07;0.82;;;;;;;;;;5004665;28;20034;-82
2022/07/08 14:47:06;;;;;;;3.25;1.08;;;;;;;;;;5009005;28;20049;-82
2022/07/08 14:49:31;;;;;;;3.33;1.40;;;;;;;;;;5011910;28;20030;-81
2022/07/08 14:51:57;;;;;;;1.45;1.00;;;;;;;;;;5001595;28;20021;-80
2022/07/08 14:54:22;;;;;;;2.60;1.05;;;;;;;;;;5019551;28;20034;-82